sensor_id;sensor_type;location;lat;lon;timestamp;P1;durP1;ratioP1;P2;durP2;ratioP2
17790;SDS011;9019;48.132;-1.210;2023-08-31T00:01:28;10.60;;;3.90;;
17790;SDS011;9019;48.132;-1.210;2023-08-31T00:03:55;11.70;;;3.63;;
17790;SDS011;9019;48.132;-1.210;2023-08-31T00:06:24;8.30;;;3.57;;
17790;SDS011;9019;48.132;-1.210;2023-08-31T00:08:51;8.53;;;3.80;;
17790;SDS011;9019;48.132;-1.210;2023-08-31T00:11:20;7.27;;;3.67;;
17790;SDS011;9019;48.132;-1.210;2023-08-31T00:13:47;7.80;;;3.60;;
17790;SDS011;9019;48.132;-1.210;2023-08-31T00:16:15;6.67;;;3.57;;
17790;SDS011;9019;48.132;-1.210;2023-08-31T00:18:42;9.70;;;3.77;;
17790;SDS011;9019;48.132;-1.210;2023-08-31T00:21:10;6.37;;;4.20;;
17790;SDS011;9019;48.132;-1.210;2023-08-31T00:23:37;7.63;;;4.30;;
17790;SDS011;9019;48.132;-1.210;2023-08-31T00:26:05;7.23;;;3.73;;
17790;SDS011;9019;48.132;-1.210;2023-08-31T00:28:35;8.87;;;4.00;;
17790;SDS011;9019;48.132;-1.210;2023-08-31T00:31:03;10.40;;;3.73;;
17790;SDS011;9019;48.132;-1.210;2023-08-31T00:33:31;8.80;;;4.50;;
17790;SDS011;9019;48.132;-1.210;2023-08-31T00:35:59;9.47;;;4.30;;
17790;SDS011;9019;48.132;-1.210;2023-08-31T00:38:28;7.13;;;4.00;;
17790;SDS011;9019;48.132;-1.210;2023-08-31T00:40:56;7.77;;;3.80;;
17790;SDS011;9019;48.132;-1.210;2023-08-31T00:43:23;8.60;;;3.77;;
17790;SDS011;9019;48.132;-1.210;2023-08-31T00:45:54;10.13;;;3.83;;
17790;SDS011;9019;48.132;-1.210;2023-08-31T00:48:23;9.60;;;4.80;;
17790;SDS011;9019;48.132;-1.210;2023-08-31T00:50:51;8.40;;;3.40;;
17790;SDS011;9019;48.132;-1.210;2023-08-31T00:53:19;7.33;;;3.53;;
17790;SDS011;9019;48.132;-1.210;2023-08-31T00:55:46;10.70;;;3.90;;
17790;SDS011;9019;48.132;-1.210;2023-08-31T00:58:14;8.13;;;4.10;;
17790;SDS011;9019;48.132;-1.210;2023-08-31T01:00:43;7.30;;;4.10;;
17790;SDS011;9019;48.132;-1.210;2023-08-31T01:03:16;9.03;;;3.60;;
17790;SDS011;9019;48.132;-1.210;2023-08-31T01:05:46;10.47;;;4.07;;
17790;SDS011;9019;48.132;-1.210;2023-08-31T01:08:19;7.20;;;3.90;;
17790;SDS011;9019;48.132;-1.210;2023-08-31T01:10:51;7.03;;;3.80;;
17790;SDS011;9019;48.132;-1.210;2023-08-31T01:13:23;7.87;;;4.00;;
17790;SDS011;9019;48.132;-1.210;2023-08-31T01:15:51;9.77;;;3.77;;
17790;SDS011;9019;48.132;-1.210;2023-08-31T01:18:22;6.87;;;4.10;;
17790;SDS011;9019;48.132;-1.210;2023-08-31T01:20:52;10.77;;;4.27;;
17790;SDS011;9019;48.132;-1.210;2023-08-31T01:23:22;8.07;;;4.10;;
17790;SDS011;9019;48.132;-1.210;2023-08-31T01:25:56;7.37;;;4.40;;
17790;SDS011;9019;48.132;-1.210;2023-08-31T01:28:23;9.73;;;4.20;;
17790;SDS011;9019;48.132;-1.210;2023-08-31T01:30:51;7.77;;;4.20;;
17790;SDS011;9019;48.132;-1.210;2023-08-31T01:33:18;11.77;;;4.43;;
17790;SDS011;9019;48.132;-1.210;2023-08-31T01:35:46;10.97;;;4.43;;
17790;SDS011;9019;48.132;-1.210;2023-08-31T01:38:18;8.07;;;4.17;;
17790;SDS011;9019;48.132;-1.210;2023-08-31T01:40:49;5.70;;;4.10;;
17790;SDS011;9019;48.132;-1.210;2023-08-31T01:43:20;8.77;;;4.10;;
17790;SDS011;9019;48.132;-1.210;2023-08-31T01:45:48;11.73;;;4.10;;
17790;SDS011;9019;48.132;-1.210;2023-08-31T01:48:16;8.83;;;3.57;;
17790;SDS011;9019;48.132;-1.210;2023-08-31T01:50:44;7.13;;;3.80;;
17790;SDS011;9019;48.132;-1.210;2023-08-31T01:53:11;7.17;;;3.90;;
17790;SDS011;9019;48.132;-1.210;2023-08-31T01:55:39;11.20;;;4.40;;
17790;SDS011;9019;48.132;-1.210;2023-08-31T01:58:06;11.30;;;4.10;;
17790;SDS011;9019;48.132;-1.210;2023-08-31T02:00:35;8.37;;;4.13;;
17790;SDS011;9019;48.132;-1.210;2023-08-31T02:03:03;7.80;;;4.13;;
17790;SDS011;9019;48.132;-1.210;2023-08-31T02:05:33;8.47;;;4.00;;
17790;SDS011;9019;48.132;-1.210;2023-08-31T02:08:00;10.80;;;3.90;;
17790;SDS011;9019;48.132;-1.210;2023-08-31T02:10:27;9.57;;;4.27;;
17790;SDS011;9019;48.132;-1.210;2023-08-31T02:12:54;10.17;;;4.60;;
17790;SDS011;9019;48.132;-1.210;2023-08-31T02:15:22;13.67;;;4.23;;
17790;SDS011;9019;48.132;-1.210;2023-08-31T02:17:50;11.17;;;4.10;;
17790;SDS011;9019;48.132;-1.210;2023-08-31T02:20:18;8.70;;;4.40;;
17790;SDS011;9019;48.132;-1.210;2023-08-31T02:22:45;12.67;;;4.63;;
17790;SDS011;9019;48.132;-1.210;2023-08-31T02:25:13;14.37;;;5.07;;
17790;SDS011;9019;48.132;-1.210;2023-08-31T02:27:41;14.10;;;4.43;;
17790;SDS011;9019;48.132;-1.210;2023-08-31T02:30:09;9.73;;;4.47;;
17790;SDS011;9019;48.132;-1.210;2023-08-31T02:32:37;8.63;;;4.20;;
17790;SDS011;9019;48.132;-1.210;2023-08-31T02:35:06;11.63;;;4.40;;
17790;SDS011;9019;48.132;-1.210;2023-08-31T02:37:34;11.93;;;4.63;;
17790;SDS011;9019;48.132;-1.210;2023-08-31T02:40:02;11.23;;;4.27;;
17790;SDS011;9019;48.132;-1.210;2023-08-31T02:42:28;10.87;;;4.50;;
17790;SDS011;9019;48.132;-1.210;2023-08-31T02:44:56;14.20;;;4.53;;
17790;SDS011;9019;48.132;-1.210;2023-08-31T02:47:23;13.33;;;4.80;;
17790;SDS011;9019;48.132;-1.210;2023-08-31T02:49:51;10.73;;;3.90;;
17790;SDS011;9019;48.132;-1.210;2023-08-31T02:52:20;12.60;;;4.30;;
17790;SDS011;9019;48.132;-1.210;2023-08-31T02:54:47;12.17;;;4.67;;
17790;SDS011;9019;48.132;-1.210;2023-08-31T02:57:15;12.27;;;4.33;;
17790;SDS011;9019;48.132;-1.210;2023-08-31T02:59:44;8.67;;;4.13;;
17790;SDS011;9019;48.132;-1.210;2023-08-31T03:02:13;7.17;;;4.10;;
17790;SDS011;9019;48.132;-1.210;2023-08-31T03:04:40;13.93;;;4.70;;
17790;SDS011;9019;48.132;-1.210;2023-08-31T03:07:08;8.47;;;4.30;;
17790;SDS011;9019;48.132;-1.210;2023-08-31T03:09:40;10.17;;;4.63;;
17790;SDS011;9019;48.132;-1.210;2023-08-31T03:12:07;8.67;;;4.00;;
17790;SDS011;9019;48.132;-1.210;2023-08-31T03:14:34;9.67;;;4.23;;
17790;SDS011;9019;48.132;-1.210;2023-08-31T03:17:02;14.90;;;4.60;;
17790;SDS011;9019;48.132;-1.210;2023-08-31T03:19:29;10.17;;;3.93;;
17790;SDS011;9019;48.132;-1.210;2023-08-31T03:21:56;11.37;;;4.13;;
17790;SDS011;9019;48.132;-1.210;2023-08-31T03:24:23;9.17;;;3.80;;
17790;SDS011;9019;48.132;-1.210;2023-08-31T03:26:52;14.27;;;4.03;;
17790;SDS011;9019;48.132;-1.210;2023-08-31T03:29:20;13.17;;;4.00;;
17790;SDS011;9019;48.132;-1.210;2023-08-31T03:31:47;11.67;;;4.07;;
17790;SDS011;9019;48.132;-1.210;2023-08-31T03:34:14;10.00;;;4.30;;
17790;SDS011;9019;48.132;-1.210;2023-08-31T03:36:42;12.80;;;4.47;;
17790;SDS011;9019;48.132;-1.210;2023-08-31T03:39:10;9.27;;;4.00;;
17790;SDS011;9019;48.132;-1.210;2023-08-31T03:41:37;9.97;;;3.93;;
17790;SDS011;9019;48.132;-1.210;2023-08-31T03:44:06;10.27;;;4.13;;
17790;SDS011;9019;48.132;-1.210;2023-08-31T03:46:34;9.70;;;3.80;;
17790;SDS011;9019;48.132;-1.210;2023-08-31T03:49:02;10.73;;;3.87;;
17790;SDS011;9019;48.132;-1.210;2023-08-31T03:51:29;12.03;;;4.17;;
17790;SDS011;9019;48.132;-1.210;2023-08-31T03:53:57;13.00;;;4.00;;
17790;SDS011;9019;48.132;-1.210;2023-08-31T03:56:24;7.97;;;3.93;;
17790;SDS011;9019;48.132;-1.210;2023-08-31T03:58:52;12.93;;;4.30;;
17790;SDS011;9019;48.132;-1.210;2023-08-31T04:01:21;12.83;;;4.20;;
17790;SDS011;9019;48.132;-1.210;2023-08-31T04:03:49;10.43;;;4.03;;
17790;SDS011;9019;48.132;-1.210;2023-08-31T04:06:16;9.77;;;3.97;;
17790;SDS011;9019;48.132;-1.210;2023-08-31T04:08:43;10.73;;;3.80;;
17790;SDS011;9019;48.132;-1.210;2023-08-31T04:11:11;7.80;;;3.80;;
17790;SDS011;9019;48.132;-1.210;2023-08-31T04:13:38;13.10;;;4.07;;
17790;SDS011;9019;48.132;-1.210;2023-08-31T04:16:06;7.60;;;3.67;;
17790;SDS011;9019;48.132;-1.210;2023-08-31T04:18:35;10.13;;;3.87;;
17790;SDS011;9019;48.132;-1.210;2023-08-31T04:21:02;11.00;;;3.83;;
17790;SDS011;9019;48.132;-1.210;2023-08-31T04:23:29;12.80;;;3.83;;
17790;SDS011;9019;48.132;-1.210;2023-08-31T04:25:57;11.20;;;3.70;;
17790;SDS011;9019;48.132;-1.210;2023-08-31T04:28:25;9.10;;;3.50;;
17790;SDS011;9019;48.132;-1.210;2023-08-31T04:30:52;11.13;;;3.23;;
17790;SDS011;9019;48.132;-1.210;2023-08-31T04:33:19;11.23;;;3.23;;
17790;SDS011;9019;48.132;-1.210;2023-08-31T04:35:49;9.13;;;2.83;;
17790;SDS011;9019;48.132;-1.210;2023-08-31T04:38:16;11.63;;;3.97;;
17790;SDS011;9019;48.132;-1.210;2023-08-31T04:40:43;13.27;;;3.30;;
17790;SDS011;9019;48.132;-1.210;2023-08-31T04:43:11;10.87;;;3.37;;
17790;SDS011;9019;48.132;-1.210;2023-08-31T04:45:38;11.23;;;3.10;;
17790;SDS011;9019;48.132;-1.210;2023-08-31T04:48:06;13.33;;;3.33;;
17790;SDS011;9019;48.132;-1.210;2023-08-31T04:50:33;13.27;;;3.33;;
17790;SDS011;9019;48.132;-1.210;2023-08-31T04:53:02;10.87;;;3.97;;
17790;SDS011;9019;48.132;-1.210;2023-08-31T04:55:29;13.03;;;3.57;;
17790;SDS011;9019;48.132;-1.210;2023-08-31T04:57:56;9.87;;;3.77;;
17790;SDS011;9019;48.132;-1.210;2023-08-31T05:00:24;11.87;;;4.87;;
17790;SDS011;9019;48.132;-1.210;2023-08-31T05:02:51;9.60;;;3.40;;
17790;SDS011;9019;48.132;-1.210;2023-08-31T05:05:18;10.77;;;3.23;;
17790;SDS011;9019;48.132;-1.210;2023-08-31T05:07:46;11.93;;;3.10;;
17790;SDS011;9019;48.132;-1.210;2023-08-31T05:10:15;9.17;;;2.93;;
17790;SDS011;9019;48.132;-1.210;2023-08-31T05:12:43;14.17;;;3.63;;
17790;SDS011;9019;48.132;-1.210;2023-08-31T05:15:10;8.80;;;2.80;;
17790;SDS011;9019;48.132;-1.210;2023-08-31T05:17:38;9.73;;;3.43;;
17790;SDS011;9019;48.132;-1.210;2023-08-31T05:20:06;8.23;;;2.97;;
17790;SDS011;9019;48.132;-1.210;2023-08-31T05:22:35;12.40;;;3.53;;
17790;SDS011;9019;48.132;-1.210;2023-08-31T05:25:02;10.67;;;3.50;;
17790;SDS011;9019;48.132;-1.210;2023-08-31T05:27:32;8.73;;;3.20;;
17790;SDS011;9019;48.132;-1.210;2023-08-31T05:29:59;11.43;;;3.57;;
17790;SDS011;9019;48.132;-1.210;2023-08-31T05:32:27;10.00;;;2.77;;
17790;SDS011;9019;48.132;-1.210;2023-08-31T05:34:55;11.97;;;3.70;;
17790;SDS011;9019;48.132;-1.210;2023-08-31T05:37:24;14.73;;;3.67;;
17790;SDS011;9019;48.132;-1.210;2023-08-31T05:39:51;10.73;;;3.27;;
17790;SDS011;9019;48.132;-1.210;2023-08-31T05:42:19;11.90;;;3.60;;
17790;SDS011;9019;48.132;-1.210;2023-08-31T05:44:48;11.47;;;3.60;;
17790;SDS011;9019;48.132;-1.210;2023-08-31T05:47:15;12.03;;;4.10;;
17790;SDS011;9019;48.132;-1.210;2023-08-31T05:49:42;10.83;;;4.30;;
17790;SDS011;9019;48.132;-1.210;2023-08-31T05:52:10;11.37;;;4.00;;
17790;SDS011;9019;48.132;-1.210;2023-08-31T05:54:37;8.83;;;3.87;;
17790;SDS011;9019;48.132;-1.210;2023-08-31T05:57:05;11.23;;;3.90;;
17790;SDS011;9019;48.132;-1.210;2023-08-31T05:59:32;11.97;;;3.90;;
17790;SDS011;9019;48.132;-1.210;2023-08-31T06:02:01;9.20;;;3.93;;
17790;SDS011;9019;48.132;-1.210;2023-08-31T06:04:29;16.60;;;4.50;;
17790;SDS011;9019;48.132;-1.210;2023-08-31T06:06:56;12.50;;;4.50;;
17790;SDS011;9019;48.132;-1.210;2023-08-31T06:09:24;14.40;;;4.00;;
17790;SDS011;9019;48.132;-1.210;2023-08-31T06:11:51;9.80;;;3.97;;
17790;SDS011;9019;48.132;-1.210;2023-08-31T06:14:18;13.90;;;4.30;;
17790;SDS011;9019;48.132;-1.210;2023-08-31T06:16:45;10.37;;;4.57;;
17790;SDS011;9019;48.132;-1.210;2023-08-31T06:19:14;11.47;;;4.60;;
17790;SDS011;9019;48.132;-1.210;2023-08-31T06:21:41;11.87;;;4.80;;
17790;SDS011;9019;48.132;-1.210;2023-08-31T06:24:08;7.57;;;4.17;;
17790;SDS011;9019;48.132;-1.210;2023-08-31T06:26:38;12.27;;;4.30;;
17790;SDS011;9019;48.132;-1.210;2023-08-31T06:29:05;10.83;;;4.50;;
17790;SDS011;9019;48.132;-1.210;2023-08-31T06:31:33;10.77;;;4.27;;
17790;SDS011;9019;48.132;-1.210;2023-08-31T06:34:00;10.77;;;4.77;;
17790;SDS011;9019;48.132;-1.210;2023-08-31T06:36:30;8.90;;;4.23;;
17790;SDS011;9019;48.132;-1.210;2023-08-31T06:38:57;12.83;;;4.37;;
17790;SDS011;9019;48.132;-1.210;2023-08-31T06:41:25;13.53;;;3.90;;
17790;SDS011;9019;48.132;-1.210;2023-08-31T06:43:52;10.53;;;4.00;;
17790;SDS011;9019;48.132;-1.210;2023-08-31T06:46:19;12.37;;;4.60;;
17790;SDS011;9019;48.132;-1.210;2023-08-31T06:48:46;12.53;;;4.67;;
17790;SDS011;9019;48.132;-1.210;2023-08-31T06:51:14;11.93;;;4.23;;
17790;SDS011;9019;48.132;-1.210;2023-08-31T06:53:43;11.80;;;4.50;;
17790;SDS011;9019;48.132;-1.210;2023-08-31T06:56:10;12.50;;;3.70;;
17790;SDS011;9019;48.132;-1.210;2023-08-31T06:58:37;10.70;;;3.93;;
17790;SDS011;9019;48.132;-1.210;2023-08-31T07:01:05;9.37;;;3.87;;
17790;SDS011;9019;48.132;-1.210;2023-08-31T07:03:32;9.37;;;3.77;;
17790;SDS011;9019;48.132;-1.210;2023-08-31T07:06:00;10.97;;;4.00;;
17790;SDS011;9019;48.132;-1.210;2023-08-31T07:08:27;8.73;;;4.47;;
17790;SDS011;9019;48.132;-1.210;2023-08-31T07:10:57;12.13;;;4.43;;
17790;SDS011;9019;48.132;-1.210;2023-08-31T07:13:24;11.17;;;4.87;;
17790;SDS011;9019;48.132;-1.210;2023-08-31T07:15:51;12.23;;;4.27;;
17790;SDS011;9019;48.132;-1.210;2023-08-31T07:18:19;8.03;;;4.40;;
17790;SDS011;9019;48.132;-1.210;2023-08-31T07:20:46;14.63;;;5.03;;
17790;SDS011;9019;48.132;-1.210;2023-08-31T07:23:13;13.43;;;4.80;;
17790;SDS011;9019;48.132;-1.210;2023-08-31T07:25:41;10.40;;;4.73;;
17790;SDS011;9019;48.132;-1.210;2023-08-31T07:28:10;10.20;;;4.67;;
17790;SDS011;9019;48.132;-1.210;2023-08-31T07:30:37;10.73;;;5.10;;
17790;SDS011;9019;48.132;-1.210;2023-08-31T07:33:05;9.97;;;4.73;;
17790;SDS011;9019;48.132;-1.210;2023-08-31T07:35:32;14.30;;;4.83;;
17790;SDS011;9019;48.132;-1.210;2023-08-31T07:38:00;10.97;;;5.50;;
17790;SDS011;9019;48.132;-1.210;2023-08-31T07:40:28;8.63;;;4.80;;
17790;SDS011;9019;48.132;-1.210;2023-08-31T07:42:55;12.00;;;4.73;;
17790;SDS011;9019;48.132;-1.210;2023-08-31T07:45:24;9.97;;;4.70;;
17790;SDS011;9019;48.132;-1.210;2023-08-31T07:47:51;6.53;;;3.50;;
17790;SDS011;9019;48.132;-1.210;2023-08-31T07:50:18;6.50;;;3.93;;
17790;SDS011;9019;48.132;-1.210;2023-08-31T07:52:45;6.33;;;3.17;;
17790;SDS011;9019;48.132;-1.210;2023-08-31T07:55:13;6.90;;;3.20;;
17790;SDS011;9019;48.132;-1.210;2023-08-31T07:57:40;5.30;;;3.63;;
17790;SDS011;9019;48.132;-1.210;2023-08-31T08:00:08;5.03;;;2.93;;
17790;SDS011;9019;48.132;-1.210;2023-08-31T08:02:37;5.93;;;3.67;;
17790;SDS011;9019;48.132;-1.210;2023-08-31T08:05:05;5.90;;;2.77;;
17790;SDS011;9019;48.132;-1.210;2023-08-31T08:07:33;3.73;;;2.70;;
17790;SDS011;9019;48.132;-1.210;2023-08-31T08:10:00;5.03;;;3.10;;
17790;SDS011;9019;48.132;-1.210;2023-08-31T08:12:27;4.00;;;3.20;;
17790;SDS011;9019;48.132;-1.210;2023-08-31T08:15:03;3.60;;;2.77;;
17790;SDS011;9019;48.132;-1.210;2023-08-31T08:17:31;4.93;;;3.35;;
17790;SDS011;9019;48.132;-1.210;2023-08-31T08:20:00;4.00;;;3.60;;
17790;SDS011;9019;48.132;-1.210;2023-08-31T08:22:28;5.70;;;4.00;;
17790;SDS011;9019;48.132;-1.210;2023-08-31T08:24:55;6.45;;;4.00;;
17790;SDS011;9019;48.132;-1.210;2023-08-31T08:27:23;4.82;;;4.10;;
17790;SDS011;9019;48.132;-1.210;2023-08-31T08:29:50;7.00;;;4.40;;
17790;SDS011;9019;48.132;-1.210;2023-08-31T08:32:18;7.70;;;4.30;;
17790;SDS011;9019;48.132;-1.210;2023-08-31T08:34:45;4.68;;;4.07;;
17790;SDS011;9019;48.132;-1.210;2023-08-31T08:37:14;5.22;;;4.00;;
17790;SDS011;9019;48.132;-1.210;2023-08-31T08:39:42;4.90;;;4.10;;
17790;SDS011;9019;48.132;-1.210;2023-08-31T08:42:10;7.07;;;4.65;;
17790;SDS011;9019;48.132;-1.210;2023-08-31T08:44:37;7.10;;;4.32;;
17790;SDS011;9019;48.132;-1.210;2023-08-31T08:47:05;6.13;;;4.45;;
17790;SDS011;9019;48.132;-1.210;2023-08-31T08:49:33;6.45;;;4.88;;
17790;SDS011;9019;48.132;-1.210;2023-08-31T08:52:01;6.88;;;4.68;;
17790;SDS011;9019;48.132;-1.210;2023-08-31T08:54:30;7.03;;;4.63;;
17790;SDS011;9019;48.132;-1.210;2023-08-31T08:56:58;5.82;;;4.30;;
17790;SDS011;9019;48.132;-1.210;2023-08-31T08:59:28;5.60;;;4.45;;
17790;SDS011;9019;48.132;-1.210;2023-08-31T09:01:57;5.47;;;4.13;;
17790;SDS011;9019;48.132;-1.210;2023-08-31T09:04:25;6.03;;;4.18;;
17790;SDS011;9019;48.132;-1.210;2023-08-31T09:06:52;4.70;;;4.18;;
17790;SDS011;9019;48.132;-1.210;2023-08-31T09:09:20;4.57;;;4.15;;
17790;SDS011;9019;48.132;-1.210;2023-08-31T09:11:49;4.45;;;4.05;;
17790;SDS011;9019;48.132;-1.210;2023-08-31T09:14:17;4.78;;;4.15;;
17790;SDS011;9019;48.132;-1.210;2023-08-31T09:16:45;4.70;;;4.03;;
17790;SDS011;9019;48.132;-1.210;2023-08-31T09:19:20;5.05;;;4.50;;
17790;SDS011;9019;48.132;-1.210;2023-08-31T09:21:48;6.03;;;4.03;;
17790;SDS011;9019;48.132;-1.210;2023-08-31T09:24:15;4.60;;;3.80;;
17790;SDS011;9019;48.132;-1.210;2023-08-31T09:26:43;5.07;;;3.90;;
17790;SDS011;9019;48.132;-1.210;2023-08-31T09:29:13;4.45;;;3.75;;
17790;SDS011;9019;48.132;-1.210;2023-08-31T09:31:43;10.82;;;3.88;;
17790;SDS011;9019;48.132;-1.210;2023-08-31T09:34:11;3.90;;;3.60;;
17790;SDS011;9019;48.132;-1.210;2023-08-31T09:36:39;4.43;;;3.83;;
17790;SDS011;9019;48.132;-1.210;2023-08-31T09:39:06;5.10;;;4.25;;
17790;SDS011;9019;48.132;-1.210;2023-08-31T09:41:35;4.22;;;3.83;;
17790;SDS011;9019;48.132;-1.210;2023-08-31T09:44:16;4.70;;;4.03;;
17790;SDS011;9019;48.132;-1.210;2023-08-31T09:46:47;6.55;;;4.60;;
17790;SDS011;9019;48.132;-1.210;2023-08-31T09:49:15;5.85;;;4.70;;
17790;SDS011;9019;48.132;-1.210;2023-08-31T09:51:44;5.43;;;4.72;;
17790;SDS011;9019;48.132;-1.210;2023-08-31T09:54:13;5.57;;;4.82;;
17790;SDS011;9019;48.132;-1.210;2023-08-31T09:56:41;6.53;;;5.43;;
17790;SDS011;9019;48.132;-1.210;2023-08-31T09:59:09;8.02;;;5.20;;
17790;SDS011;9019;48.132;-1.210;2023-08-31T10:01:38;5.72;;;4.70;;
17790;SDS011;9019;48.132;-1.210;2023-08-31T10:04:06;5.35;;;4.85;;
17790;SDS011;9019;48.132;-1.210;2023-08-31T10:06:34;5.75;;;4.68;;
17790;SDS011;9019;48.132;-1.210;2023-08-31T10:09:05;5.63;;;4.38;;
17790;SDS011;9019;48.132;-1.210;2023-08-31T10:11:34;6.20;;;5.28;;
17790;SDS011;9019;48.132;-1.210;2023-08-31T10:14:02;5.00;;;4.50;;
17790;SDS011;9019;48.132;-1.210;2023-08-31T10:16:30;5.20;;;4.70;;
17790;SDS011;9019;48.132;-1.210;2023-08-31T10:19:00;6.85;;;4.97;;
17790;SDS011;9019;48.132;-1.210;2023-08-31T10:21:28;4.78;;;4.30;;
17790;SDS011;9019;48.132;-1.210;2023-08-31T10:23:55;4.43;;;3.80;;
17790;SDS011;9019;48.132;-1.210;2023-08-31T10:26:23;4.07;;;3.67;;
17790;SDS011;9019;48.132;-1.210;2023-08-31T10:28:51;4.68;;;4.28;;
17790;SDS011;9019;48.132;-1.210;2023-08-31T10:31:19;4.60;;;3.80;;
17790;SDS011;9019;48.132;-1.210;2023-08-31T10:33:47;3.72;;;3.40;;
17790;SDS011;9019;48.132;-1.210;2023-08-31T10:36:34;3.72;;;3.30;;
17790;SDS011;9019;48.132;-1.210;2023-08-31T10:39:05;3.65;;;3.30;;
17790;SDS011;9019;48.132;-1.210;2023-08-31T10:41:41;3.92;;;3.53;;
17790;SDS011;9019;48.132;-1.210;2023-08-31T10:44:21;4.75;;;3.60;;
17790;SDS011;9019;48.132;-1.210;2023-08-31T10:46:49;4.05;;;3.63;;
17790;SDS011;9019;48.132;-1.210;2023-08-31T10:49:20;3.92;;;3.25;;
17790;SDS011;9019;48.132;-1.210;2023-08-31T10:51:55;3.70;;;3.33;;
17790;SDS011;9019;48.132;-1.210;2023-08-31T10:54:24;3.80;;;3.22;;
17790;SDS011;9019;48.132;-1.210;2023-08-31T10:56:52;4.28;;;3.40;;
17790;SDS011;9019;48.132;-1.210;2023-08-31T10:59:19;3.65;;;3.00;;
17790;SDS011;9019;48.132;-1.210;2023-08-31T11:01:56;4.85;;;3.50;;
17790;SDS011;9019;48.132;-1.210;2023-08-31T11:04:25;3.88;;;3.00;;
17790;SDS011;9019;48.132;-1.210;2023-08-31T11:07:13;3.15;;;2.85;;
17790;SDS011;9019;48.132;-1.210;2023-08-31T11:09:44;3.38;;;2.67;;
17790;SDS011;9019;48.132;-1.210;2023-08-31T11:12:12;2.90;;;2.70;;
17790;SDS011;9019;48.132;-1.210;2023-08-31T11:14:40;3.22;;;2.92;;
17790;SDS011;9019;48.132;-1.210;2023-08-31T11:17:07;3.55;;;3.25;;
17790;SDS011;9019;48.132;-1.210;2023-08-31T11:19:35;3.72;;;3.15;;
17790;SDS011;9019;48.132;-1.210;2023-08-31T11:22:03;3.88;;;3.03;;
17790;SDS011;9019;48.132;-1.210;2023-08-31T11:24:32;3.63;;;3.30;;
17790;SDS011;9019;48.132;-1.210;2023-08-31T11:27:07;3.50;;;2.95;;
17790;SDS011;9019;48.132;-1.210;2023-08-31T11:29:38;3.47;;;3.17;;
17790;SDS011;9019;48.132;-1.210;2023-08-31T11:32:09;3.63;;;3.33;;
17790;SDS011;9019;48.132;-1.210;2023-08-31T11:34:40;3.95;;;3.53;;
17790;SDS011;9019;48.132;-1.210;2023-08-31T11:37:08;3.88;;;3.35;;
17790;SDS011;9019;48.132;-1.210;2023-08-31T11:42:20;2.70;;;2.50;;
17790;SDS011;9019;48.132;-1.210;2023-08-31T11:44:47;3.17;;;2.67;;
17790;SDS011;9019;48.132;-1.210;2023-08-31T11:47:31;2.88;;;2.67;;
17790;SDS011;9019;48.132;-1.210;2023-08-31T11:50:06;2.75;;;2.55;;
17790;SDS011;9019;48.132;-1.210;2023-08-31T11:52:33;2.35;;;2.15;;
17790;SDS011;9019;48.132;-1.210;2023-08-31T11:55:10;3.80;;;2.83;;
17790;SDS011;9019;48.132;-1.210;2023-08-31T11:57:39;2.30;;;2.10;;
17790;SDS011;9019;48.132;-1.210;2023-08-31T12:00:06;4.63;;;2.47;;
17790;SDS011;9019;48.132;-1.210;2023-08-31T12:02:44;2.58;;;2.20;;
17790;SDS011;9019;48.132;-1.210;2023-08-31T12:05:14;2.58;;;2.00;;
17790;SDS011;9019;48.132;-1.210;2023-08-31T12:07:41;2.63;;;2.30;;
17790;SDS011;9019;48.132;-1.210;2023-08-31T12:10:09;2.47;;;2.28;;
17790;SDS011;9019;48.132;-1.210;2023-08-31T12:12:36;2.85;;;2.33;;
17790;SDS011;9019;48.132;-1.210;2023-08-31T12:15:06;3.30;;;2.70;;
17790;SDS011;9019;48.132;-1.210;2023-08-31T12:17:36;3.22;;;2.42;;
17790;SDS011;9019;48.132;-1.210;2023-08-31T12:20:05;2.30;;;2.10;;
17790;SDS011;9019;48.132;-1.210;2023-08-31T12:22:32;2.45;;;2.25;;
17790;SDS011;9019;48.132;-1.210;2023-08-31T12:25:00;3.70;;;2.22;;
17790;SDS011;9019;48.132;-1.210;2023-08-31T12:27:34;2.50;;;2.08;;
17790;SDS011;9019;48.132;-1.210;2023-08-31T12:30:01;2.65;;;2.20;;
17790;SDS011;9019;48.132;-1.210;2023-08-31T12:32:30;4.30;;;2.03;;
17790;SDS011;9019;48.132;-1.210;2023-08-31T12:34:57;3.45;;;2.17;;
17790;SDS011;9019;48.132;-1.210;2023-08-31T12:37:28;2.42;;;1.90;;
17790;SDS011;9019;48.132;-1.210;2023-08-31T12:39:55;2.53;;;1.80;;
17790;SDS011;9019;48.132;-1.210;2023-08-31T12:42:23;3.17;;;1.90;;
17790;SDS011;9019;48.132;-1.210;2023-08-31T12:44:50;3.08;;;1.58;;
17790;SDS011;9019;48.132;-1.210;2023-08-31T12:47:18;2.17;;;1.50;;
17790;SDS011;9019;48.132;-1.210;2023-08-31T12:49:48;2.85;;;1.58;;
17790;SDS011;9019;48.132;-1.210;2023-08-31T12:52:16;2.45;;;1.80;;
17790;SDS011;9019;48.132;-1.210;2023-08-31T12:54:43;3.33;;;1.70;;
17790;SDS011;9019;48.132;-1.210;2023-08-31T12:57:11;2.67;;;1.40;;
17790;SDS011;9019;48.132;-1.210;2023-08-31T12:59:38;1.83;;;1.52;;
17790;SDS011;9019;48.132;-1.210;2023-08-31T13:02:07;1.58;;;1.48;;
17790;SDS011;9019;48.132;-1.210;2023-08-31T13:04:45;2.40;;;1.70;;
17790;SDS011;9019;48.132;-1.210;2023-08-31T13:07:13;3.38;;;1.60;;
17790;SDS011;9019;48.132;-1.210;2023-08-31T13:09:41;2.13;;;1.52;;
17790;SDS011;9019;48.132;-1.210;2023-08-31T13:12:08;2.40;;;1.60;;
17790;SDS011;9019;48.132;-1.210;2023-08-31T13:14:36;2.00;;;1.67;;
17790;SDS011;9019;48.132;-1.210;2023-08-31T13:17:04;1.50;;;1.35;;
17790;SDS011;9019;48.132;-1.210;2023-08-31T13:19:31;4.53;;;1.30;;
17790;SDS011;9019;48.132;-1.210;2023-08-31T13:21:58;1.40;;;1.15;;
17790;SDS011;9019;48.132;-1.210;2023-08-31T13:24:27;3.22;;;1.70;;
17790;SDS011;9019;48.132;-1.210;2023-08-31T13:26:54;1.92;;;1.27;;
17790;SDS011;9019;48.132;-1.210;2023-08-31T13:29:22;1.88;;;1.08;;
17790;SDS011;9019;48.132;-1.210;2023-08-31T13:31:53;2.08;;;1.02;;
17790;SDS011;9019;48.132;-1.210;2023-08-31T13:34:20;1.70;;;1.15;;
17790;SDS011;9019;48.132;-1.210;2023-08-31T13:36:47;1.90;;;1.00;;
17790;SDS011;9019;48.132;-1.210;2023-08-31T13:39:14;1.92;;;1.20;;
17790;SDS011;9019;48.132;-1.210;2023-08-31T13:41:57;1.90;;;1.30;;
17790;SDS011;9019;48.132;-1.210;2023-08-31T13:44:27;2.17;;;1.23;;
17790;SDS011;9019;48.132;-1.210;2023-08-31T13:46:54;1.45;;;1.17;;
17790;SDS011;9019;48.132;-1.210;2023-08-31T13:49:23;1.52;;;1.20;;
17790;SDS011;9019;48.132;-1.210;2023-08-31T13:51:50;1.95;;;0.90;;
17790;SDS011;9019;48.132;-1.210;2023-08-31T13:54:17;2.70;;;1.20;;
17790;SDS011;9019;48.132;-1.210;2023-08-31T13:56:45;1.17;;;1.00;;
17790;SDS011;9019;48.132;-1.210;2023-08-31T13:59:18;2.08;;;1.23;;
17790;SDS011;9019;48.132;-1.210;2023-08-31T14:01:45;2.33;;;1.05;;
17790;SDS011;9019;48.132;-1.210;2023-08-31T14:04:12;1.40;;;0.93;;
17790;SDS011;9019;48.132;-1.210;2023-08-31T14:06:41;1.77;;;1.10;;
17790;SDS011;9019;48.132;-1.210;2023-08-31T14:09:16;3.38;;;1.25;;
17790;SDS011;9019;48.132;-1.210;2023-08-31T14:11:44;2.08;;;1.15;;
17790;SDS011;9019;48.132;-1.210;2023-08-31T14:14:11;1.48;;;1.20;;
17790;SDS011;9019;48.132;-1.210;2023-08-31T14:16:41;1.35;;;1.23;;
17790;SDS011;9019;48.132;-1.210;2023-08-31T14:19:08;3.05;;;1.63;;
17790;SDS011;9019;48.132;-1.210;2023-08-31T14:21:37;1.80;;;1.20;;
17790;SDS011;9019;48.132;-1.210;2023-08-31T14:24:05;4.28;;;1.30;;
17790;SDS011;9019;48.132;-1.210;2023-08-31T14:26:32;2.53;;;1.08;;
17790;SDS011;9019;48.132;-1.210;2023-08-31T14:28:59;2.75;;;1.05;;
17790;SDS011;9019;48.132;-1.210;2023-08-31T14:31:27;1.92;;;1.13;;
17790;SDS011;9019;48.132;-1.210;2023-08-31T14:34:01;3.15;;;1.50;;
17790;SDS011;9019;48.132;-1.210;2023-08-31T14:36:36;3.50;;;1.23;;
17790;SDS011;9019;48.132;-1.210;2023-08-31T14:39:03;3.30;;;1.33;;
17790;SDS011;9019;48.132;-1.210;2023-08-31T14:41:30;2.55;;;1.25;;
17790;SDS011;9019;48.132;-1.210;2023-08-31T14:43:58;1.73;;;1.10;;
17790;SDS011;9019;48.132;-1.210;2023-08-31T14:46:25;3.40;;;1.00;;
17790;SDS011;9019;48.132;-1.210;2023-08-31T14:48:53;2.03;;;1.10;;
17790;SDS011;9019;48.132;-1.210;2023-08-31T14:51:21;2.20;;;0.85;;
17790;SDS011;9019;48.132;-1.210;2023-08-31T14:53:49;2.40;;;0.75;;